createdAt,value
2019-04-10T00:01:07.487Z,12.90
2019-04-10T00:03:37.908Z,12.80
2019-04-10T00:06:06.686Z,12.60
2019-04-10T00:08:36.503Z,12.60
2019-04-10T00:11:05.822Z,12.50
2019-04-10T00:13:34.916Z,12.50
2019-04-10T00:16:03.974Z,12.40
2019-04-10T00:18:33.787Z,12.50
2019-04-10T00:21:02.990Z,12.30
2019-04-10T00:23:32.027Z,12.40
2019-04-10T00:26:01.453Z,12.40
2019-04-10T00:28:31.680Z,12.50
2019-04-10T00:31:01.910Z,12.60
2019-04-10T00:33:30.975Z,12.50
2019-04-10T00:35:59.899Z,12.50
2019-04-10T00:38:29.574Z,12.50
2019-04-10T00:40:59.623Z,12.60
2019-04-10T00:43:28.866Z,12.60
2019-04-10T00:45:58.094Z,12.50
2019-04-10T00:48:27.782Z,12.60
2019-04-10T00:50:57.162Z,12.60
2019-04-10T00:53:27.297Z,12.70
2019-04-10T00:55:56.489Z,12.70
2019-04-10T00:58:25.926Z,12.70
2019-04-10T01:00:55.134Z,12.70
2019-04-10T01:03:42.198Z,12.70
2019-04-10T01:06:11.501Z,12.60
2019-04-10T01:08:40.633Z,12.60
2019-04-10T01:11:10.698Z,12.60
2019-04-10T01:13:41.014Z,12.60
2019-04-10T01:16:11.196Z,12.50
2019-04-10T01:18:41.488Z,12.60
2019-04-10T01:21:11.122Z,12.60
2019-04-10T01:23:41.352Z,12.50
2019-04-10T01:26:10.733Z,12.50
2019-04-10T01:28:40.833Z,12.40
2019-04-10T01:31:10.825Z,12.40
2019-04-10T01:33:40.889Z,12.40
2019-04-10T01:36:10.935Z,12.40
2019-04-10T01:38:40.269Z,12.30
2019-04-10T01:41:09.784Z,12.30
2019-04-10T01:43:39.257Z,12.20
2019-04-10T01:46:08.432Z,12.30
2019-04-10T01:48:37.360Z,12.30
2019-04-10T01:51:06.714Z,12.30
2019-04-10T01:53:35.825Z,12.20
2019-04-10T01:56:05.290Z,12.20
2019-04-10T01:58:34.931Z,12.20
2019-04-10T02:01:08.690Z,12.10
2019-04-10T02:03:38.308Z,12.10
2019-04-10T02:06:07.365Z,12.10
2019-04-10T02:08:36.442Z,12.10
2019-04-10T02:11:05.596Z,12.10
2019-04-10T02:13:34.622Z,12.00
2019-04-10T02:16:03.695Z,11.90
2019-04-10T02:18:33.139Z,12.00
2019-04-10T02:21:03.333Z,11.90
2019-04-10T02:23:32.477Z,11.90
2019-04-10T02:26:01.664Z,11.90
2019-04-10T02:28:31.189Z,11.80
2019-04-10T02:31:00.668Z,11.80
2019-04-10T02:33:31.287Z,11.80
2019-04-10T02:36:01.353Z,11.70
2019-04-10T02:38:48.938Z,11.70
2019-04-10T02:41:01.704Z,11.70
2019-04-10T02:43:31.179Z,11.70
2019-04-10T02:46:02.010Z,11.70
2019-04-10T02:48:32.031Z,11.60
2019-04-10T02:51:01.872Z,11.60
2019-04-10T02:53:31.645Z,11.60
2019-04-10T02:56:00.847Z,11.50
2019-04-10T02:58:30.049Z,11.50
2019-04-10T03:01:01.135Z,11.50
2019-04-10T03:03:30.079Z,11.40
2019-04-10T03:05:59.633Z,11.40
2019-04-10T03:08:44.562Z,11.40
2019-04-10T03:11:04.022Z,11.30
2019-04-10T03:13:31.074Z,11.30
2019-04-10T03:16:00.207Z,11.30
2019-04-10T03:18:29.266Z,11.20
2019-04-10T03:20:58.505Z,11.20
2019-04-10T03:23:27.633Z,11.20
2019-04-10T03:25:57.300Z,11.20
2019-04-10T03:28:27.066Z,11.00
2019-04-10T03:30:58.243Z,11.00
2019-04-10T03:33:47.426Z,11.10
2019-04-10T03:36:15.782Z,11.10
2019-04-10T03:38:55.322Z,11.10
2019-04-10T03:41:15.716Z,11.00
2019-04-10T03:43:45.761Z,11.00
2019-04-10T03:46:14.851Z,11.00
2019-04-10T03:48:43.922Z,10.90
2019-04-10T03:51:13.004Z,10.90
2019-04-10T03:53:42.543Z,10.90
2019-04-10T03:56:11.787Z,10.90
2019-04-10T03:58:41.683Z,11.00
2019-04-10T04:01:11.057Z,11.10
2019-04-10T04:03:40.543Z,11.00
2019-04-10T04:06:09.603Z,10.90
2019-04-10T04:08:39.456Z,11.00
2019-04-10T04:11:09.216Z,10.90
2019-04-10T04:13:38.343Z,10.90
2019-04-10T04:16:07.422Z,10.90
2019-04-10T04:18:37.202Z,10.90
2019-04-10T04:21:07.594Z,10.90
2019-04-10T04:23:36.733Z,10.90
2019-04-10T04:26:07.220Z,10.90
2019-04-10T04:28:36.312Z,10.90
2019-04-10T04:31:05.439Z,10.80
2019-04-10T04:33:34.458Z,10.90
2019-04-10T04:36:04.068Z,10.80
2019-04-10T04:38:33.198Z,10.80
2019-04-10T04:41:02.425Z,10.90
2019-04-10T04:43:32.673Z,10.90
2019-04-10T04:46:01.792Z,10.80
2019-04-10T04:48:31.790Z,10.70
2019-04-10T04:51:01.311Z,10.70
2019-04-10T04:53:30.458Z,10.70
2019-04-10T04:55:59.671Z,10.60
2019-04-10T04:58:28.663Z,10.60
2019-04-10T05:00:58.582Z,10.60
2019-04-10T05:03:27.615Z,10.60
2019-04-10T05:05:56.681Z,10.60
2019-04-10T05:08:26.061Z,10.60
2019-04-10T05:10:56.060Z,10.60
2019-04-10T05:13:26.306Z,10.60
2019-04-10T05:15:55.509Z,10.50
2019-04-10T05:18:25.392Z,10.50
2019-04-10T05:20:54.801Z,10.60
2019-04-10T05:23:24.473Z,10.60
2019-04-10T05:25:53.974Z,10.50
2019-04-10T05:28:24.210Z,10.60
2019-04-10T05:30:54.593Z,10.60
2019-04-10T05:33:24.640Z,10.60
2019-04-10T05:35:54.904Z,10.60
2019-04-10T05:38:24.987Z,10.60
2019-04-10T05:40:55.069Z,10.60
2019-04-10T05:43:24.397Z,10.60
2019-04-10T05:45:53.599Z,10.50
2019-04-10T05:48:24.014Z,10.60
2019-04-10T05:51:00.915Z,10.60
2019-04-10T05:53:24.620Z,10.60
2019-04-10T05:55:53.862Z,10.60
2019-04-10T05:58:23.767Z,10.60
2019-04-10T06:00:53.397Z,10.80
2019-04-10T06:03:22.720Z,10.80
2019-04-10T06:05:51.924Z,10.80
2019-04-10T06:08:21.580Z,10.90
2019-04-10T06:10:51.858Z,10.90
2019-04-10T06:13:21.131Z,10.90
2019-04-10T06:15:50.896Z,10.90
2019-04-10T06:18:20.779Z,10.90
2019-04-10T06:20:49.953Z,11.00
2019-04-10T06:23:19.217Z,10.90
2019-04-10T06:25:49.868Z,10.90
2019-04-10T06:28:19.209Z,11.00
2019-04-10T06:30:48.311Z,11.10
2019-04-10T06:33:18.355Z,11.10
2019-04-10T06:35:47.608Z,11.10
2019-04-10T06:38:16.883Z,11.20
2019-04-10T06:40:46.118Z,11.10
2019-04-10T06:43:16.992Z,11.20
2019-04-10T06:45:46.208Z,11.10
2019-04-10T06:48:17.180Z,11.20
2019-04-10T06:50:47.365Z,11.00
2019-04-10T06:53:18.564Z,11.10
2019-04-10T06:55:47.135Z,11.00
2019-04-10T06:58:16.198Z,11.00
2019-04-10T07:00:49.724Z,11.00
2019-04-10T07:03:16.947Z,11.00
2019-04-10T07:06:00.441Z,11.00
2019-04-10T07:08:19.899Z,11.10
2019-04-10T07:10:54.237Z,11.20
2019-04-10T07:13:19.700Z,11.30
2019-04-10T07:15:49.776Z,11.40
2019-04-10T07:18:20.662Z,11.50
2019-04-10T07:20:50.398Z,11.50
2019-04-10T07:23:25.829Z,11.50
2019-04-10T07:25:50.403Z,11.40
2019-04-10T07:28:19.531Z,11.40
2019-04-10T07:30:48.756Z,11.30
2019-04-10T07:33:19.429Z,11.40
2019-04-10T07:35:48.571Z,11.40
2019-04-10T07:38:18.405Z,11.50
2019-04-10T07:40:49.091Z,11.50
2019-04-10T07:43:22.888Z,11.30
2019-04-10T07:45:49.135Z,11.40
2019-04-10T07:48:18.508Z,11.50
2019-04-10T07:50:48.555Z,11.40
2019-04-10T07:53:18.872Z,11.50
2019-04-10T07:55:58.377Z,11.50
2019-04-10T07:58:19.502Z,11.50
2019-04-10T08:00:49.753Z,11.60
2019-04-10T08:03:19.011Z,11.70
2019-04-10T08:05:48.210Z,11.70
2019-04-10T08:08:17.371Z,11.70
2019-04-10T08:10:47.233Z,11.80
2019-04-10T08:13:16.458Z,11.70
2019-04-10T08:15:45.510Z,11.60
2019-04-10T08:18:14.759Z,11.70
2019-04-10T08:20:43.808Z,11.80
2019-04-10T08:23:12.888Z,11.80
2019-04-10T08:25:43.062Z,11.90
2019-04-10T08:28:12.372Z,11.90
2019-04-10T08:30:41.949Z,11.90
2019-04-10T08:33:11.982Z,11.80
2019-04-10T08:35:41.930Z,11.90
2019-04-10T08:38:11.210Z,12.00
2019-04-10T08:40:40.483Z,11.90
2019-04-10T08:43:09.643Z,12.00
2019-04-10T08:45:46.386Z,12.10
2019-04-10T08:48:10.045Z,12.20
2019-04-10T08:50:39.309Z,12.20
2019-04-10T08:53:08.231Z,12.30
2019-04-10T08:55:37.855Z,12.40
2019-04-10T08:58:08.237Z,12.50
2019-04-10T09:00:37.576Z,12.50
2019-04-10T09:03:06.778Z,12.50
2019-04-10T09:05:35.771Z,12.60
2019-04-10T09:08:04.867Z,12.70
2019-04-10T09:10:34.435Z,12.70
2019-04-10T09:13:04.283Z,12.80
2019-04-10T09:15:34.133Z,12.80
2019-04-10T09:18:04.051Z,12.80
2019-04-10T09:20:33.184Z,12.80
2019-04-10T09:23:21.467Z,12.90
2019-04-10T09:25:33.404Z,12.90
2019-04-10T09:28:02.631Z,13.00
2019-04-10T09:30:31.691Z,13.10
2019-04-10T09:33:01.662Z,13.10
2019-04-10T09:35:31.477Z,13.10
2019-04-10T09:38:00.476Z,13.20
2019-04-10T09:40:30.044Z,13.20
2019-04-10T09:42:59.787Z,13.20
2019-04-10T09:45:28.871Z,13.30
2019-04-10T09:47:58.001Z,13.30
2019-04-10T09:50:27.665Z,13.40
2019-04-10T09:52:56.883Z,13.40
2019-04-10T09:55:25.951Z,13.40
2019-04-10T09:57:54.948Z,13.40
2019-04-10T10:00:25.968Z,13.50
2019-04-10T10:02:55.069Z,13.50
2019-04-10T10:05:24.421Z,13.40
2019-04-10T10:07:55.758Z,13.50
2019-04-10T10:10:24.700Z,13.40
2019-04-10T10:12:53.865Z,13.30
2019-04-10T10:15:23.158Z,13.20
2019-04-10T10:17:52.938Z,13.10
2019-04-10T10:20:22.174Z,13.00
2019-04-10T10:22:51.797Z,13.10
2019-04-10T10:25:21.557Z,13.00
2019-04-10T10:27:50.952Z,13.20
2019-04-10T10:30:20.753Z,13.20
2019-04-10T10:32:49.702Z,13.20
2019-04-10T10:35:18.963Z,13.30
2019-04-10T10:37:48.481Z,13.20
2019-04-10T10:40:19.199Z,13.10
2019-04-10T10:42:48.748Z,13.10
2019-04-10T10:45:18.648Z,13.30
2019-04-10T10:47:48.569Z,13.30
2019-04-10T10:50:17.749Z,13.20
2019-04-10T10:52:47.743Z,13.20
2019-04-10T10:55:17.844Z,13.20
2019-04-10T10:57:47.108Z,13.20
2019-04-10T11:00:17.112Z,13.10
2019-04-10T11:02:46.222Z,13.30
2019-04-10T11:05:15.299Z,13.20
2019-04-10T11:07:44.365Z,13.10
2019-04-10T11:10:14.747Z,13.20
2019-04-10T11:12:44.179Z,13.30
2019-04-10T11:15:13.896Z,13.20
2019-04-10T11:17:44.626Z,13.30
2019-04-10T11:20:15.260Z,13.30
2019-04-10T11:22:44.941Z,13.20
2019-04-10T11:25:15.688Z,13.20
2019-04-10T11:27:44.882Z,13.30
2019-04-10T11:30:15.989Z,13.30
2019-04-10T11:32:46.301Z,13.30
2019-04-10T11:35:15.706Z,13.30
2019-04-10T11:37:49.653Z,13.40
2019-04-10T11:40:17.959Z,13.40
2019-04-10T11:42:47.739Z,13.30
2019-04-10T11:45:19.077Z,13.40
2019-04-10T11:47:50.779Z,13.40
2019-04-10T11:50:18.881Z,13.30
2019-04-10T11:52:52.564Z,13.40
2019-04-10T11:55:21.013Z,13.30
2019-04-10T11:57:51.493Z,13.30
2019-04-10T12:00:45.322Z,13.30
2019-04-10T12:03:09.806Z,13.30
2019-04-10T12:05:41.134Z,13.40
2019-04-10T12:08:40.220Z,13.30
2019-04-10T12:13:14.200Z,13.20
2019-04-10T12:15:43.211Z,13.20
2019-04-10T12:18:12.214Z,13.30
2019-04-10T12:20:41.296Z,13.20
2019-04-10T12:23:10.836Z,13.20
2019-04-10T12:25:39.969Z,13.20
2019-04-10T12:28:09.575Z,13.20
2019-04-10T12:30:39.530Z,13.20
2019-04-10T12:33:09.557Z,13.10
2019-04-10T12:35:40.319Z,13.10
2019-04-10T12:38:10.782Z,13.10
2019-04-10T12:40:40.556Z,13.10
2019-04-10T12:43:10.518Z,13.10
2019-04-10T12:45:40.307Z,13.20
2019-04-10T12:48:10.377Z,13.10
2019-04-10T12:50:39.706Z,13.00
2019-04-10T12:53:09.368Z,13.00
2019-04-10T12:55:38.882Z,13.10
2019-04-10T12:58:13.638Z,13.10
2019-04-10T13:00:40.995Z,13.10
2019-04-10T13:03:09.764Z,13.10
2019-04-10T13:05:38.842Z,13.10
2019-04-10T13:08:17.837Z,13.10
2019-04-10T13:10:39.818Z,13.20
2019-04-10T13:13:09.502Z,13.10
2019-04-10T13:15:39.311Z,13.10
2019-04-10T13:18:08.718Z,13.10
2019-04-10T13:20:37.897Z,13.10
2019-04-10T13:23:06.901Z,13.00
2019-04-10T13:25:36.630Z,13.10
2019-04-10T13:28:05.779Z,13.10
2019-04-10T13:30:46.700Z,13.10
2019-04-10T13:33:07.045Z,13.10
2019-04-10T13:35:36.068Z,13.10
2019-04-10T13:38:06.766Z,13.00
2019-04-10T13:40:35.834Z,13.10
2019-04-10T13:43:05.362Z,13.10
2019-04-10T13:45:35.340Z,13.20
2019-04-10T13:48:04.526Z,13.20
2019-04-10T13:50:33.442Z,13.20
2019-04-10T13:53:03.768Z,13.30
2019-04-10T13:55:33.168Z,13.20
2019-04-10T13:58:03.262Z,13.30
2019-04-10T14:00:39.655Z,13.30
2019-04-10T14:03:08.063Z,13.40
2019-04-10T14:05:37.191Z,13.40
2019-04-10T14:08:06.904Z,13.40
2019-04-10T14:10:38.529Z,13.30
2019-04-10T14:13:07.453Z,13.30
2019-04-10T14:15:37.027Z,13.30
2019-04-10T14:18:06.693Z,13.30
2019-04-10T14:20:35.773Z,13.30
2019-04-10T14:23:29.732Z,13.30
2019-04-10T14:26:17.615Z,13.30
2019-04-10T14:28:47.474Z,13.30
2019-04-10T14:31:23.099Z,13.30
2019-04-10T14:33:53.232Z,13.30
2019-04-10T14:36:22.541Z,13.30
2019-04-10T14:38:51.658Z,13.30
2019-04-10T14:41:20.732Z,13.30
2019-04-10T14:43:50.222Z,13.30
2019-04-10T14:46:19.234Z,13.30
2019-04-10T14:48:48.833Z,13.20
2019-04-10T14:51:18.029Z,13.30
2019-04-10T14:53:47.051Z,13.20
2019-04-10T14:56:16.302Z,13.10
2019-04-10T14:58:46.469Z,13.10
2019-04-10T15:01:15.779Z,13.10
2019-04-10T15:03:44.771Z,13.10
2019-04-10T15:06:15.333Z,13.20
2019-04-10T15:08:44.447Z,13.20
2019-04-10T15:11:14.158Z,13.20
2019-04-10T15:13:43.262Z,13.20
2019-04-10T15:16:12.630Z,13.20
2019-04-10T15:18:41.807Z,13.20
2019-04-10T15:21:10.834Z,13.20
2019-04-10T15:23:39.835Z,13.20
2019-04-10T15:26:08.899Z,13.20
2019-04-10T15:28:37.906Z,13.20
2019-04-10T15:31:06.899Z,13.20
2019-04-10T15:33:35.991Z,13.20
2019-04-10T15:36:05.166Z,13.20
2019-04-10T15:38:34.247Z,13.10
2019-04-10T15:41:04.079Z,13.10
2019-04-10T15:43:33.802Z,13.10
2019-04-10T15:46:03.274Z,13.10
2019-04-10T15:48:33.628Z,13.10
2019-04-10T15:51:03.615Z,13.10
2019-04-10T15:53:32.848Z,13.10
2019-04-10T15:56:01.943Z,13.10
2019-04-10T15:58:31.231Z,13.10
2019-04-10T16:01:01.368Z,13.10
2019-04-10T16:03:30.530Z,13.10
2019-04-10T16:05:59.479Z,13.10
2019-04-10T16:08:28.648Z,13.10
2019-04-10T16:11:15.064Z,13.10
2019-04-10T16:13:46.677Z,13.00
2019-04-10T16:16:53.274Z,13.10
2019-04-10T16:19:41.478Z,13.10
2019-04-10T16:22:21.870Z,13.00
2019-04-10T16:24:51.242Z,13.00
2019-04-10T16:27:20.398Z,13.00
2019-04-10T16:29:49.399Z,13.00
2019-04-10T16:32:18.887Z,13.00
2019-04-10T16:34:49.038Z,13.00
2019-04-10T16:37:18.700Z,13.00
2019-04-10T16:39:57.804Z,13.00
2019-04-10T16:42:18.976Z,12.90
2019-04-10T16:44:49.247Z,12.90
2019-04-10T16:47:19.610Z,12.90
2019-04-10T16:49:48.909Z,12.90
2019-04-10T16:52:17.827Z,12.90
2019-04-10T16:54:46.904Z,12.90
2019-04-10T16:57:15.904Z,12.90
2019-04-10T16:59:44.871Z,12.80
2019-04-10T17:02:13.959Z,12.80
2019-04-10T17:04:43.758Z,12.80
2019-04-10T17:07:12.883Z,12.80
2019-04-10T17:09:43.746Z,12.80
2019-04-10T17:12:13.593Z,12.80
2019-04-10T17:14:43.809Z,12.70
2019-04-10T17:17:14.426Z,12.80
2019-04-10T17:19:48.879Z,12.80
2019-04-10T17:22:14.492Z,12.70
2019-04-10T17:24:43.603Z,12.70
2019-04-10T17:27:13.220Z,12.70
2019-04-10T17:29:42.453Z,12.70
2019-04-10T17:32:11.475Z,12.60
2019-04-10T17:34:41.055Z,12.60
2019-04-10T17:37:10.211Z,12.50
2019-04-10T17:39:39.746Z,12.40
2019-04-10T17:42:09.964Z,12.50
2019-04-10T17:44:40.154Z,12.40
2019-04-10T17:47:09.980Z,12.40
2019-04-10T17:49:39.350Z,12.30
2019-04-10T17:52:08.511Z,12.40
2019-04-10T17:54:38.629Z,12.30
2019-04-10T17:57:08.670Z,12.40
2019-04-10T17:59:38.537Z,12.40
2019-04-10T18:02:11.686Z,12.40
2019-04-10T18:04:42.091Z,12.40
2019-04-10T18:07:12.118Z,12.40
2019-04-10T18:09:41.398Z,12.30
2019-04-10T18:12:10.539Z,12.30
2019-04-10T18:14:41.028Z,12.30
2019-04-10T18:17:10.967Z,12.30
2019-04-10T18:19:40.165Z,12.30
2019-04-10T18:22:10.134Z,12.30
2019-04-10T18:24:40.128Z,12.30
2019-04-10T18:27:09.257Z,12.30
2019-04-10T18:29:39.354Z,12.20
2019-04-10T18:32:09.614Z,12.20
2019-04-10T18:34:38.971Z,12.10
2019-04-10T18:37:09.344Z,12.10
2019-04-10T18:39:38.856Z,12.10
2019-04-10T18:42:07.912Z,12.10
2019-04-10T18:44:38.104Z,12.00
2019-04-10T18:47:07.392Z,12.00
2019-04-10T18:49:36.423Z,12.00
2019-04-10T18:52:05.523Z,12.00
2019-04-10T18:54:34.613Z,12.00
2019-04-10T18:57:03.693Z,12.10
2019-04-10T18:59:42.772Z,12.00
2019-04-10T19:02:31.053Z,12.10
2019-04-10T19:05:19.423Z,12.10
2019-04-10T19:07:48.539Z,12.10
2019-04-10T19:10:17.849Z,12.00
2019-04-10T19:12:47.070Z,12.00
2019-04-10T19:15:16.962Z,12.00
2019-04-10T19:17:46.818Z,12.00
2019-04-10T19:20:16.146Z,12.00
2019-04-10T19:22:45.325Z,12.00
2019-04-10T19:25:14.624Z,12.00
2019-04-10T19:27:44.476Z,12.00
2019-04-10T19:30:33.616Z,12.00
2019-04-10T19:33:02.767Z,11.90
2019-04-10T19:35:31.893Z,11.80
2019-04-10T19:38:01.102Z,11.90
2019-04-10T19:40:30.260Z,11.90
2019-04-10T19:42:59.993Z,11.90
2019-04-10T19:45:30.148Z,11.80
2019-04-10T19:47:59.218Z,11.80
2019-04-10T19:50:28.379Z,11.80
2019-04-10T19:52:57.440Z,11.80
2019-04-10T19:55:27.488Z,11.70
2019-04-10T19:57:57.457Z,11.70
2019-04-10T20:00:30.854Z,11.70
2019-04-10T20:02:59.878Z,11.70
2019-04-10T20:05:29.580Z,11.70
2019-04-10T20:07:59.647Z,11.80
2019-04-10T20:10:29.687Z,11.80
2019-04-10T20:12:59.386Z,11.70
2019-04-10T20:15:28.889Z,11.60
2019-04-10T20:17:58.053Z,11.60
2019-04-10T20:20:27.222Z,11.60
2019-04-10T20:22:56.234Z,11.60
2019-04-10T20:25:26.199Z,11.50
2019-04-10T20:27:56.318Z,11.60
2019-04-10T20:30:28.006Z,11.50
2019-04-10T20:32:57.129Z,11.50
2019-04-10T20:35:26.583Z,11.50
2019-04-10T20:37:55.717Z,11.50
2019-04-10T20:40:25.601Z,11.50
2019-04-10T20:42:54.682Z,11.50
2019-04-10T20:45:25.278Z,11.50
2019-04-10T20:47:54.370Z,11.50
2019-04-10T20:50:23.892Z,11.40
2019-04-10T20:52:53.694Z,11.50
2019-04-10T20:55:23.866Z,11.40
2019-04-10T20:57:54.103Z,11.50
2019-04-10T21:00:43.097Z,11.40
2019-04-10T21:03:13.387Z,11.40
2019-04-10T21:05:42.546Z,11.40
2019-04-10T21:08:11.639Z,11.40
2019-04-10T21:10:40.954Z,11.40
2019-04-10T21:13:10.186Z,11.40
2019-04-10T21:15:39.402Z,11.40
2019-04-10T21:18:08.666Z,11.40
2019-04-10T21:20:37.819Z,11.40
2019-04-10T21:23:06.964Z,11.40
2019-04-10T21:25:36.195Z,11.40
2019-04-10T21:28:05.518Z,11.50
2019-04-10T21:30:50.656Z,11.40
2019-04-10T21:33:47.820Z,11.40
2019-04-10T21:36:16.940Z,11.40
2019-04-10T21:38:48.911Z,11.40
2019-04-10T21:41:16.801Z,11.40
2019-04-10T21:43:45.902Z,11.40
2019-04-10T21:46:14.924Z,11.40
2019-04-10T21:48:43.921Z,11.40
2019-04-10T21:51:12.926Z,11.40
2019-04-10T21:53:42.082Z,11.40
2019-04-10T21:56:11.015Z,11.40
2019-04-10T21:58:40.835Z,11.40
2019-04-10T22:01:13.404Z,11.40
2019-04-10T22:03:41.657Z,11.30
2019-04-10T22:06:28.795Z,11.30
2019-04-10T22:09:16.614Z,11.30
2019-04-10T22:11:47.700Z,11.30
2019-04-10T22:14:17.141Z,11.30
2019-04-10T22:16:46.430Z,11.30
2019-04-10T22:19:16.635Z,11.30
2019-04-10T22:21:46.277Z,11.30
2019-04-10T22:24:15.740Z,11.30
2019-04-10T22:26:44.935Z,11.30
2019-04-10T22:29:14.175Z,11.30
2019-04-10T22:31:44.018Z,11.30
2019-04-10T22:34:13.653Z,11.20
2019-04-10T22:36:42.733Z,11.20
2019-04-10T22:39:16.633Z,11.20
2019-04-10T22:41:46.213Z,11.20
2019-04-10T22:44:15.431Z,11.20
2019-04-10T22:46:44.620Z,11.10
2019-04-10T22:49:14.569Z,11.10
2019-04-10T22:51:43.995Z,11.20
2019-04-10T22:54:14.454Z,11.10
2019-04-10T22:56:43.742Z,11.10
2019-04-10T22:59:13.574Z,11.10
2019-04-10T23:01:43.277Z,11.00
2019-04-10T23:04:12.546Z,11.10
2019-04-10T23:06:41.685Z,11.10
2019-04-10T23:09:12.068Z,11.10
2019-04-10T23:11:44.598Z,11.00
2019-04-10T23:14:12.362Z,11.00
2019-04-10T23:16:41.671Z,11.10
2019-04-10T23:19:10.697Z,11.10
2019-04-10T23:21:40.845Z,11.00
2019-04-10T23:24:09.945Z,11.00
2019-04-10T23:26:39.540Z,10.90
2019-04-10T23:29:08.685Z,10.90
2019-04-10T23:31:37.871Z,10.90
2019-04-10T23:34:08.284Z,10.90
2019-04-10T23:36:38.153Z,10.90
2019-04-10T23:39:08.143Z,10.90
2019-04-10T23:41:37.903Z,10.90
2019-04-10T23:44:07.130Z,10.90
2019-04-10T23:46:36.826Z,10.80
2019-04-10T23:49:06.002Z,10.80
2019-04-10T23:51:35.011Z,10.80
2019-04-10T23:54:04.791Z,10.70
2019-04-10T23:56:33.873Z,10.60
2019-04-10T23:59:02.811Z,10.70
